Time;durP1;ratioP1;P1;durP2;ratioP2;P2;SDS_P1;SDS_P2;PMS_P1;PMS_P2;Temp;Humidity;BMP_temperature;BMP_pressure;BME280_temperature;BME280_humidity;BME280_pressure;Samples;Min_cycle;Max_cycle;Signal;HPM_P1;HPM_P2
2021/12/04 00:00:05;;;;;;;0.70;0.70;;;;;;;1.39;67.66;95765.63;29373;213;63005;-65
2021/12/04 00:00:46;;;;;;;0.80;0.80;;;;;;;1.44;67.46;95760.28;29373;234;63009;-65
2021/12/04 00:01:22;;;;;;;0.80;0.80;;;;;;;1.42;67.16;95757.06;29395;219;63005;-63
2021/12/04 00:01:58;;;;;;;0.80;0.80;;;;;;;1.40;67.31;95759.19;29395;218;63009;-66
2021/12/04 00:02:29;;;;;;;0.73;0.73;;;;;;;1.43;67.37;95756.00;29372;227;64004;-62
2021/12/04 00:03:01;;;;;;;0.70;0.70;;;;;;;1.42;67.46;95751.72;29373;224;63009;-63
2021/12/04 00:03:32;;;;;;;0.80;0.80;;;;;;;1.40;67.39;95751.97;29371;270;64004;-63
2021/12/04 00:04:03;;;;;;;0.80;0.80;;;;;;;1.39;67.31;95753.03;29373;255;63009;-68
2021/12/04 00:04:39;;;;;;;0.80;0.80;;;;;;;1.43;67.45;95751.44;29372;321;64004;-66
2021/12/04 00:05:10;;;;;;;0.80;0.80;;;;;;;1.45;67.07;95743.16;29373;212;63008;-66
2021/12/04 00:05:50;;;;;;;0.70;0.70;;;;;;;1.48;66.90;95745.31;29373;272;63004;-65
2021/12/04 00:06:27;;;;;;;0.80;0.80;;;;;;;1.50;66.23;95738.66;29373;317;63008;-65
2021/12/04 00:06:58;;;;;;;0.80;0.80;;;;;;;1.48;66.55;95748.78;29373;289;63005;-64
2021/12/04 00:07:32;;;;;;;0.70;0.70;;;;;;;1.43;67.19;95747.97;29373;202;63009;-64
2021/12/04 00:08:04;;;;;;;0.80;0.80;;;;;;;1.39;67.68;95746.91;29373;317;63005;-65
2021/12/04 00:08:36;;;;;;;0.80;0.80;;;;;;;1.36;67.54;95747.44;29371;321;64009;-64
2021/12/04 00:09:09;;;;;;;0.80;0.80;;;;;;;1.34;67.75;95745.84;29373;197;63005;-65
2021/12/04 00:09:44;;;;;;;0.80;0.80;;;;;;;1.34;67.71;95745.84;29373;227;63009;-65
2021/12/04 00:10:21;;;;;;;0.80;0.80;;;;;;;1.33;67.55;95746.09;29373;263;63004;-63
2021/12/04 00:10:52;;;;;;;0.80;0.80;;;;;;;1.34;67.75;95740.50;29373;223;63009;-67
2021/12/04 00:11:24;;;;;;;0.80;0.80;;;;;;;1.31;67.89;95741.00;29373;215;63004;-63
2021/12/04 00:12:01;;;;;;;0.80;0.80;;;;;;;1.32;67.94;95737.28;29373;258;63027;-62
2021/12/04 00:12:34;;;;;;;0.80;0.80;;;;;;;1.32;67.50;95731.94;29373;361;63009;-63
2021/12/04 00:13:05;;;;;;;0.80;0.80;;;;;;;1.35;67.40;95730.59;29373;216;63008;-64
2021/12/04 00:13:37;;;;;;;0.70;0.70;;;;;;;1.34;67.49;95724.44;29371;203;64005;-65
2021/12/04 00:14:10;;;;;;;0.80;0.80;;;;;;;1.36;67.34;95736.75;29373;233;63009;-65
2021/12/04 00:14:41;;;;;;;0.80;0.80;;;;;;;1.35;67.65;95725.25;29373;354;63005;-61
2021/12/04 00:15:12;;;;;;;0.80;0.80;;;;;;;1.38;67.68;95726.59;29373;258;63009;-64
2021/12/04 00:15:44;;;;;;;0.80;0.80;;;;;;;1.38;67.81;95729.28;29372;346;64005;-65
2021/12/04 00:16:15;;;;;;;0.80;0.80;;;;;;;1.36;68.13;95726.06;29373;220;63009;-65
2021/12/04 00:16:47;;;;;;;0.80;0.80;;;;;;;1.33;68.23;95732.72;29373;247;63005;-65
2021/12/04 00:17:19;;;;;;;0.80;0.80;;;;;;;1.32;68.46;95721.25;29373;225;63026;-65
2021/12/04 00:17:50;;;;;;;0.80;0.80;;;;;;;1.31;68.22;95718.81;29373;284;63004;-66
2021/12/04 00:18:22;;;;;;;0.80;0.80;;;;;;;1.33;68.23;95720.16;29373;291;63023;-71
2021/12/04 00:18:53;;;;;;;0.80;0.80;;;;;;;1.39;68.39;95715.63;29371;214;64018;-63
2021/12/04 00:19:26;;;;;;;0.80;0.80;;;;;;;1.39;67.97;95714.84;29372;341;63009;-64
2021/12/04 00:19:57;;;;;;;0.80;0.80;;;;;;;1.37;68.18;95717.78;29372;250;64004;-66
2021/12/04 00:20:30;;;;;;;0.80;0.80;;;;;;;1.36;68.25;95720.72;29373;291;63008;-64
2021/12/04 00:21:02;;;;;;;0.90;0.90;;;;;;;1.34;68.35;95719.09;29373;213;63017;-64
2021/12/04 00:21:33;;;;;;;0.70;0.70;;;;;;;1.38;67.96;95718.59;29373;331;63009;-66
2021/12/04 00:22:04;;;;;;;0.75;0.75;;;;;;;1.37;67.79;95714.31;29373;297;63005;-64
2021/12/04 00:22:36;;;;;;;0.70;0.70;;;;;;;1.36;67.78;95718.03;29373;212;63020;-65
2021/12/04 00:23:08;;;;;;;0.70;0.70;;;;;;;1.36;68.02;95716.16;29373;202;63009;-65
2021/12/04 00:23:39;;;;;;;0.80;0.80;;;;;;;1.41;68.09;95713.50;29373;339;63009;-65
2021/12/04 00:24:11;;;;;;;0.80;0.80;;;;;;;1.44;67.67;95712.16;29371;287;64005;-64
2021/12/04 00:24:42;;;;;;;0.80;0.80;;;;;;;1.43;67.61;95710.56;29373;318;63009;-64
2021/12/04 00:25:14;;;;;;;0.75;0.75;;;;;;;1.42;67.84;95708.94;29373;214;63004;-65
2021/12/04 00:25:45;;;;;;;0.70;0.70;;;;;;;1.40;68.01;95711.06;29373;207;63009;-64
2021/12/04 00:26:16;;;;;;;0.80;0.80;;;;;;;1.39;68.26;95710.28;29373;221;63004;-64
2021/12/04 00:26:49;;;;;;;0.80;0.80;;;;;;;1.38;68.29;95710.56;29373;234;63009;-66
2021/12/04 00:27:20;;;;;;;0.80;0.80;;;;;;;1.38;68.38;95711.38;29373;202;63004;-64
2021/12/04 00:27:51;;;;;;;0.80;0.80;;;;;;;1.37;68.80;95706.28;29373;233;63008;-66
2021/12/04 00:28:22;;;;;;;0.80;0.80;;;;;;;1.39;68.50;95704.94;29373;226;63009;-65
2021/12/04 00:28:54;;;;;;;0.80;0.80;;;;;;;1.40;68.39;95705.72;29373;214;63009;-65
2021/12/04 00:29:25;;;;;;;0.80;0.80;;;;;;;1.41;68.53;95710.00;29371;313;64005;-63
2021/12/04 00:29:58;;;;;;;0.80;0.80;;;;;;;1.43;68.74;95699.84;29373;254;63009;-65
2021/12/04 00:30:30;;;;;;;0.80;0.80;;;;;;;1.43;68.35;95710.56;29373;216;63005;-65
2021/12/04 00:31:07;;;;;;;0.80;0.80;;;;;;;1.41;68.60;95712.69;29373;198;63009;-66
2021/12/04 00:31:44;;;;;;;0.80;0.80;;;;;;;1.39;68.60;95704.94;29373;238;63005;-64
2021/12/04 00:33:19;;;;;;;0.80;0.80;;;;;;;1.41;68.41;95702.00;29373;250;63004;-64
2021/12/04 00:33:51;;;;;;;0.80;0.80;;;;;;;1.40;69.35;95705.72;29373;248;63009;-59
2021/12/04 00:34:25;;;;;;;0.80;0.80;;;;;;;1.39;69.04;95701.47;29371;203;64004;-65
2021/12/04 00:35:11;;;;;;;0.73;0.73;;;;;;;1.39;68.80;95704.16;29371;359;64008;-66
2021/12/04 00:35:59;;;;;;;0.80;0.80;;;;;;;1.38;69.33;95705.22;29373;197;63004;-64
2021/12/04 00:36:44;;;;;;;0.80;0.80;;;;;;;1.38;69.22;95705.22;29373;214;63009;-68
2021/12/04 00:49:18;;;;;;;0.80;0.80;;;;;;;1.37;69.08;95684.91;29373;306;63004;-64
2021/12/04 00:49:49;;;;;;;0.80;0.80;;;;;;;1.37;68.95;95690.25;29373;244;63009;-64
2021/12/04 00:50:21;;;;;;;0.80;0.80;;;;;;;1.37;69.02;95685.72;29373;225;63004;-66
2021/12/04 00:50:52;;;;;;;0.80;0.80;;;;;;;1.37;69.08;95684.91;29371;244;64008;-57
2021/12/04 00:51:24;;;;;;;0.80;0.80;;;;;;;1.37;69.26;95690.25;29373;248;63005;-63
2021/12/04 00:51:58;;;;;;;0.80;0.80;;;;;;;1.41;69.00;95686.75;29373;219;63009;-65
2021/12/04 00:52:29;;;;;;;0.80;0.80;;;;;;;1.42;68.82;95679.53;29373;215;63005;-64
2021/12/04 00:53:02;;;;;;;0.80;0.80;;;;;;;1.44;68.60;95690.78;29371;220;64009;-62
2021/12/04 00:53:34;;;;;;;0.70;0.70;;;;;;;1.44;68.57;95690.78;29373;234;63005;-65
2021/12/04 00:54:09;;;;;;;0.80;0.80;;;;;;;1.41;69.38;95686.75;29373;202;63025;-63
2021/12/04 00:54:42;;;;;;;0.80;0.80;;;;;;;1.41;69.06;95685.97;29373;245;63005;-67
2021/12/04 00:55:14;;;;;;;0.80;0.80;;;;;;;1.39;69.21;95685.44;29371;241;64009;-66
2021/12/04 00:55:47;;;;;;;0.80;0.80;;;;;;;1.39;69.12;95682.78;29373;197;63004;-66
2021/12/04 00:56:18;;;;;;;0.80;0.80;;;;;;;1.37;69.51;95688.38;29373;278;63009;-64
2021/12/04 00:56:50;;;;;;;0.80;0.80;;;;;;;1.38;69.49;95681.97;29373;227;63004;-66
2021/12/04 00:57:21;;;;;;;0.80;0.80;;;;;;;1.39;69.48;95682.78;29373;196;63009;-65
2021/12/04 00:57:52;;;;;;;0.80;0.80;;;;;;;1.40;69.52;95684.34;29373;214;63004;-63
2021/12/04 00:58:23;;;;;;;0.70;0.70;;;;;;;1.40;69.48;95673.66;29371;313;64008;-63
2021/12/04 00:58:55;;;;;;;0.80;0.80;;;;;;;1.48;69.19;95665.13;29373;204;63009;-63
2021/12/04 00:59:26;;;;;;;0.80;0.80;;;;;;;1.57;68.52;95664.34;29373;310;63017;-64
2021/12/04 00:59:58;;;;;;;0.80;0.80;;;;;;;1.59;68.27;95666.75;29373;197;63005;-57
2021/12/04 01:00:30;;;;;;;0.80;0.80;;;;;;;1.57;68.43;95668.88;29371;197;64009;-63
2021/12/04 01:01:02;;;;;;;0.80;0.80;;;;;;;1.57;68.24;95658.19;29373;229;63005;-64
2021/12/04 01:01:34;;;;;;;0.80;0.80;;;;;;;1.62;68.51;95660.88;29373;225;63009;-63
2021/12/04 01:02:05;;;;;;;0.80;0.80;;;;;;;1.61;68.40;95659.28;29373;351;63005;-64
2021/12/04 01:02:36;;;;;;;0.80;0.80;;;;;;;1.59;68.49;95656.87;29373;318;63009;-66
2021/12/04 01:03:08;;;;;;;0.70;0.70;;;;;;;1.55;69.33;95660.34;29373;319;63004;-65
2021/12/04 01:03:39;;;;;;;0.80;0.80;;;;;;;1.56;69.29;95664.59;29373;313;63009;-65
2021/12/04 01:04:14;;;;;;;0.77;0.77;;;;;;;1.58;69.53;95663.28;29373;330;63004;-57
2021/12/04 01:04:45;;;;;;;0.80;0.80;;;;;;;1.57;69.53;95650.97;29373;349;63009;-64
2021/12/04 01:05:17;;;;;;;0.80;0.80;;;;;;;1.55;69.52;95646.97;29373;353;63004;-63
2021/12/04 01:05:48;;;;;;;0.80;0.80;;;;;;;1.56;69.31;95651.25;29371;277;64008;-68
2021/12/04 01:06:19;;;;;;;0.80;0.80;;;;;;;1.57;69.53;95650.19;29371;308;64005;-65
2021/12/04 01:06:51;;;;;;;0.77;0.77;;;;;;;1.56;69.60;95652.03;29373;206;63009;-63
2021/12/04 01:07:24;;;;;;;0.80;0.80;;;;;;;1.57;69.54;95647.50;29371;289;64005;-57
2021/12/04 01:07:56;;;;;;;0.80;0.80;;;;;;;1.55;69.50;95649.63;29373;282;63009;-63
2021/12/04 01:08:28;;;;;;;0.80;0.80;;;;;;;1.53;69.61;95646.44;29373;309;63009;-57
2021/12/04 01:08:59;;;;;;;0.80;0.80;;;;;;;1.50;69.75;95647.75;29373;200;63009;-61
2021/12/04 01:09:30;;;;;;;0.80;0.80;;;;;;;1.49;69.64;95650.69;29373;362;63004;-65
2021/12/04 01:10:04;;;;;;;0.70;0.70;;;;;;;1.48;71.19;95649.09;29373;351;63009;-66
2021/12/04 01:10:36;;;;;;;0.80;0.80;;;;;;;1.47;70.90;95650.16;29372;337;64004;-66
2021/12/04 01:11:07;;;;;;;0.80;0.80;;;;;;;1.45;71.11;95646.94;29373;228;63009;-64
2021/12/04 01:11:40;;;;;;;0.80;0.80;;;;;;;1.47;70.70;95642.13;29373;203;63004;-64
2021/12/04 01:12:11;;;;;;;0.80;0.80;;;;;;;1.48;70.79;95643.75;29373;346;63008;-62
2021/12/04 01:12:43;;;;;;;0.80;0.80;;;;;;;1.49;70.68;95640.00;29371;266;64004;-62
2021/12/04 01:13:15;;;;;;;0.80;0.80;;;;;;;1.54;70.46;95643.50;29373;358;63026;-64
2021/12/04 01:13:46;;;;;;;0.80;0.80;;;;;;;1.55;70.61;95644.28;29373;255;63005;-62
2021/12/04 01:14:20;;;;;;;0.80;0.80;;;;;;;1.60;70.27;95649.66;29373;362;63009;-64
2021/12/04 01:14:51;;;;;;;0.80;0.80;;;;;;;1.61;70.31;95643.22;29373;232;63005;-63
2021/12/04 01:15:22;;;;;;;0.80;0.80;;;;;;;1.62;70.18;95650.19;29373;320;63009;-62
2021/12/04 01:15:57;;;;;;;0.80;0.80;;;;;;;1.62;70.05;95644.84;29373;348;63005;-60
2021/12/04 01:16:28;;;;;;;0.80;0.80;;;;;;;1.62;70.16;95645.62;29373;287;63009;-64
2021/12/04 01:17:00;;;;;;;0.80;0.80;;;;;;;1.62;70.18;95640.28;29373;244;63004;-63
2021/12/04 01:17:32;;;;;;;0.80;0.80;;;;;;;1.62;70.37;95634.16;29371;295;64009;-66
2021/12/04 01:18:03;;;;;;;0.80;0.80;;;;;;;1.63;70.72;95641.09;29373;197;63004;-66
2021/12/04 01:18:34;;;;;;;0.80;0.80;;;;;;;1.63;70.87;95635.75;29373;366;63009;-66
2021/12/04 01:19:05;;;;;;;0.80;0.80;;;;;;;1.65;71.16;95644.31;29371;336;64004;-62
2021/12/04 01:19:37;;;;;;;0.80;0.80;;;;;;;1.64;71.79;95637.34;29373;349;63008;-65
2021/12/04 01:20:09;;;;;;;0.80;0.80;;;;;;;1.63;71.38;95641.09;29373;306;63004;-67
2021/12/04 01:20:40;;;;;;;0.80;0.80;;;;;;;1.65;71.68;95638.97;29373;336;63009;-65
2021/12/04 01:21:12;;;;;;;0.80;0.80;;;;;;;1.65;71.84;95644.31;29373;205;63005;-62
2021/12/04 01:21:43;;;;;;;0.80;0.80;;;;;;;1.62;71.91;95644.84;29371;292;64009;-65
2021/12/04 01:22:14;;;;;;;0.80;0.80;;;;;;;1.62;71.94;95645.62;29373;226;63005;-57
2021/12/04 01:22:45;;;;;;;0.80;0.80;;;;;;;1.62;72.89;95655.53;29371;337;64009;-63
2021/12/04 01:23:16;;;;;;;0.80;0.80;;;;;;;1.68;72.68;95643.78;29373;308;63005;-64
2021/12/04 01:23:48;;;;;;;0.80;0.80;;;;;;;1.68;72.55;95644.59;29373;197;63009;-65
2021/12/04 01:24:20;;;;;;;0.80;0.80;;;;;;;1.75;72.87;95643.47;29373;197;63005;-61
2021/12/04 01:24:52;;;;;;;0.70;0.70;;;;;;;1.76;72.51;95639.75;29373;325;63009;-65
2021/12/04 01:25:24;;;;;;;0.80;0.80;;;;;;;1.74;73.20;95640.00;29373;229;63004;-65
2021/12/04 01:25:56;;;;;;;0.80;0.80;;;;;;;1.69;73.22;95634.69;29373;222;63009;-63
2021/12/04 01:26:27;;;;;;;0.70;0.70;;;;;;;1.67;73.00;95631.47;29371;215;64004;-66
2021/12/04 01:26:59;;;;;;;0.80;0.80;;;;;;;1.68;73.43;95622.38;29373;207;63008;-65
2021/12/04 01:27:30;;;;;;;0.80;0.80;;;;;;;1.71;74.08;95627.19;29373;299;63004;-61
2021/12/04 01:28:04;;;;;;;1.00;1.00;;;;;;;1.71;74.12;95621.84;29373;202;63009;-61
2021/12/04 01:28:35;;;;;;;0.80;0.80;;;;;;;1.77;74.59;95626.09;29373;272;63005;-58
2021/12/04 01:29:07;;;;;;;0.80;0.80;;;;;;;1.74;74.57;95631.97;29373;272;63009;-64
2021/12/04 01:29:38;;;;;;;0.80;0.80;;;;;;;1.72;74.28;95626.13;29373;299;63005;-58
2021/12/04 01:30:10;;;;;;;0.80;0.80;;;;;;;1.69;74.39;95629.34;29373;317;63009;-58
2021/12/04 01:30:41;;;;;;;0.80;0.80;;;;;;;1.65;74.39;95639.75;29371;215;64005;-57
2021/12/04 01:31:12;;;;;;;0.70;0.70;;;;;;;1.63;74.99;95627.72;29373;349;63009;-61
2021/12/04 01:31:45;;;;;;;0.70;0.70;;;;;;;1.62;74.96;95629.59;29373;198;63005;-61
2021/12/04 01:32:16;;;;;;;0.80;0.80;;;;;;;1.60;75.76;95628.25;29373;328;63009;-61
2021/12/04 01:32:47;;;;;;;0.70;0.70;;;;;;;1.62;75.33;95626.94;29373;197;63004;-58
2021/12/04 01:33:19;;;;;;;0.70;0.70;;;;;;;1.59;75.39;95629.31;29373;218;63009;-59
2021/12/04 01:33:51;;;;;;;0.80;0.80;;;;;;;1.56;75.92;95625.31;29373;278;63004;-64
2021/12/04 01:34:22;;;;;;;0.70;0.70;;;;;;;1.59;75.75;95640.03;29373;309;63009;-59
2021/12/04 01:34:54;;;;;;;0.80;0.80;;;;;;;1.58;76.26;95627.72;29373;267;63004;-63
2021/12/04 01:35:26;;;;;;;0.80;0.80;;;;;;;1.59;76.50;95632.00;29373;227;63009;-62
2021/12/04 01:35:57;;;;;;;0.80;0.80;;;;;;;1.59;76.33;95627.44;29371;209;64005;-65
2021/12/04 01:36:29;;;;;;;0.80;0.80;;;;;;;1.64;76.13;95626.66;29373;216;63009;-58
2021/12/04 01:37:01;;;;;;;0.73;0.73;;;;;;;1.69;76.43;95624.00;29373;330;63005;-61
2021/12/04 01:37:32;;;;;;;0.80;0.80;;;;;;;1.66;77.00;95627.19;29373;204;63009;-64
2021/12/04 01:38:04;;;;;;;0.70;0.70;;;;;;;1.65;76.92;95628.25;29371;310;64005;-62
2021/12/04 01:38:36;;;;;;;0.73;0.73;;;;;;;1.66;77.02;95624.53;29373;237;63009;-65
2021/12/04 01:39:08;;;;;;;0.70;0.70;;;;;;;1.64;77.26;95637.34;29373;350;63005;-59
2021/12/04 01:39:39;;;;;;;0.70;0.70;;;;;;;1.64;77.27;95622.12;29373;362;63009;-58
2021/12/04 01:40:12;;;;;;;0.80;0.80;;;;;;;1.64;77.72;95632.81;29373;196;63004;-62
2021/12/04 01:40:44;;;;;;;0.73;0.73;;;;;;;1.64;78.01;95642.69;29373;238;63009;-58
2021/12/04 01:41:15;;;;;;;0.80;0.80;;;;;;;1.65;78.69;95633.59;29371;324;64004;-59
2021/12/04 01:41:47;;;;;;;0.70;0.70;;;;;;;1.61;80.31;95628.00;29373;271;63009;-58
2021/12/04 01:42:20;;;;;;;0.80;0.80;;;;;;;1.57;79.81;95626.13;29373;258;63004;-59
2021/12/04 01:42:52;;;;;;;0.70;0.70;;;;;;;1.54;79.39;95632.00;29371;370;64008;-67
2021/12/04 01:43:23;;;;;;;0.70;0.70;;;;;;;1.54;80.26;95627.44;29373;365;63005;-59
2021/12/04 01:43:59;;;;;;;0.80;0.80;;;;;;;1.56;80.54;95635.19;29373;266;63009;-72
2021/12/04 01:44:32;;;;;;;0.80;0.80;;;;;;;1.56;82.27;95640.56;29371;205;64005;-57
2021/12/04 01:45:06;;;;;;;0.70;0.70;;;;;;;1.50;82.21;95636.25;29373;244;63009;-58
2021/12/04 01:45:38;;;;;;;0.70;0.70;;;;;;;1.48;81.63;95635.72;29373;248;63005;-59
2021/12/04 01:46:10;;;;;;;0.80;0.80;;;;;;;1.45;82.01;95639.72;29373;231;63009;-66
2021/12/04 01:46:42;;;;;;;0.80;0.80;;;;;;;1.45;82.41;95638.94;29373;198;63005;-69
2021/12/04 01:47:15;;;;;;;0.73;0.73;;;;;;;1.41;82.42;95637.84;29373;212;63009;-58
2021/12/04 01:47:47;;;;;;;0.80;0.80;;;;;;;1.40;82.14;95628.22;29371;305;64004;-56
2021/12/04 01:48:18;;;;;;;0.70;0.70;;;;;;;1.44;82.58;95630.09;29373;244;63009;-64
2021/12/04 01:48:53;;;;;;;0.75;0.75;;;;;;;1.46;82.77;95622.62;29372;205;63008;-59
2021/12/04 01:49:24;;;;;;;0.70;0.70;;;;;;;1.44;83.07;95621.28;29371;197;64009;-59
2021/12/04 01:49:56;;;;;;;0.77;0.77;;;;;;;1.41;83.23;95624.47;29373;337;63004;-58
2021/12/04 01:50:29;;;;;;;0.70;0.70;;;;;;;1.36;83.34;95619.16;29373;214;63028;-67
2021/12/04 01:51:02;;;;;;;0.80;0.80;;;;;;;1.32;83.45;95614.34;29373;228;63005;-64
2021/12/04 01:51:33;;;;;;;1.15;1.15;;;;;;;1.30;84.29;95621.81;29373;292;63009;-62
2021/12/04 01:52:06;;;;;;;0.80;0.80;;;;;;;1.31;84.18;95612.72;29373;346;63005;-66
2021/12/04 01:52:39;;;;;;;0.80;0.80;;;;;;;1.32;84.00;95616.22;29373;221;63009;-56
2021/12/04 01:53:11;;;;;;;0.70;0.70;;;;;;;1.30;83.93;95616.47;29373;203;63005;-67
2021/12/04 01:53:43;;;;;;;0.70;0.70;;;;;;;1.32;83.96;95611.66;29373;331;63009;-58
2021/12/04 01:54:14;;;;;;;0.80;0.80;;;;;;;1.31;83.70;95612.72;29373;203;63005;-67
2021/12/04 01:54:46;;;;;;;0.80;0.80;;;;;;;1.29;84.05;95614.88;29371;204;64009;-59
2021/12/04 01:55:18;;;;;;;0.80;0.80;;;;;;;1.29;83.92;95606.84;29373;285;63004;-61
2021/12/04 01:55:55;;;;;;;0.70;0.70;;;;;;;1.26;84.26;95604.72;29371;202;64009;-65
2021/12/04 01:56:31;;;;;;;0.80;0.80;;;;;;;1.24;84.20;95617.53;29373;220;63004;-58
2021/12/04 01:57:04;;;;;;;0.80;0.80;;;;;;;1.21;84.33;95610.03;29373;226;63009;-58
2021/12/04 01:57:37;;;;;;;0.80;0.80;;;;;;;1.20;84.13;95611.09;29373;238;63004;-59
2021/12/04 01:58:08;;;;;;;0.80;0.80;;;;;;;1.22;84.51;95603.63;29373;337;63009;-64
2021/12/04 01:58:42;;;;;;;0.80;0.80;;;;;;;1.18;85.06;95597.22;29373;337;63005;-59
2021/12/04 01:59:14;;;;;;;0.80;0.80;;;;;;;1.17;85.30;95600.94;29373;276;63009;-67
2021/12/04 01:59:45;;;;;;;0.80;0.80;;;;;;;1.21;85.01;95599.34;29373;269;63019;-63
2021/12/04 02:00:17;;;;;;;0.70;0.70;;;;;;;1.21;85.38;95596.69;29371;240;64009;-58
2021/12/04 02:00:48;;;;;;;1.12;1.12;;;;;;;1.22;85.46;95592.94;29373;222;63005;-66
2021/12/04 02:01:19;;;;;;;0.75;0.75;;;;;;;1.20;85.28;95597.75;29373;326;63009;-59
2021/12/04 02:01:51;;;;;;;0.80;0.80;;;;;;;1.19;85.13;95593.47;29373;327;63005;-65
2021/12/04 02:02:23;;;;;;;0.80;0.80;;;;;;;1.24;85.46;95592.69;29373;222;63009;-65
2021/12/04 02:02:57;;;;;;;0.70;0.70;;;;;;;1.23;85.33;95586.53;29373;280;63004;-65
2021/12/04 02:03:29;;;;;;;0.80;0.80;;;;;;;1.19;86.10;95587.31;29373;204;63009;-66
2021/12/04 02:04:00;;;;;;;0.80;0.80;;;;;;;1.14;86.08;95588.13;29373;235;63004;-59
2021/12/04 02:04:31;;;;;;;0.80;0.80;;;;;;;1.12;85.94;95592.12;29372;335;63016;-63
2021/12/04 02:05:03;;;;;;;0.80;0.80;;;;;;;1.14;85.85;95585.44;29372;310;64004;-57
2021/12/04 02:05:38;;;;;;;0.80;0.80;;;;;;;1.12;85.78;95584.91;29371;213;64009;-65
2021/12/04 02:06:09;;;;;;;0.80;0.80;;;;;;;1.10;86.07;95595.03;29373;202;63005;-65
2021/12/04 02:06:40;;;;;;;0.75;0.75;;;;;;;1.11;85.99;95582.50;29373;242;63009;-66
2021/12/04 02:07:13;;;;;;;0.70;0.70;;;;;;;1.09;86.18;95584.62;29372;227;64005;-63
2021/12/04 02:07:46;;;;;;;0.80;0.80;;;;;;;1.11;86.18;95579.81;29373;280;63009;-64
2021/12/04 02:08:19;;;;;;;0.80;0.80;;;;;;;1.10;86.45;95573.69;29372;277;64005;-64
2021/12/04 02:08:52;;;;;;;0.80;0.80;;;;;;;1.08;86.21;95570.47;29371;213;64009;-65
2021/12/04 02:09:23;;;;;;;0.70;0.70;;;;;;;1.05;86.58;95571.00;29373;223;63005;-56
2021/12/04 02:09:54;;;;;;;0.80;0.80;;;;;;;1.03;86.74;95570.50;29373;311;63009;-64
2021/12/04 02:10:26;;;;;;;0.75;0.75;;;;;;;1.02;86.98;95571.56;29373;268;63004;-57
2021/12/04 02:10:59;;;;;;;0.70;0.70;;;;;;;1.02;86.99;95560.06;29373;291;63009;-66
2021/12/04 02:11:30;;;;;;;0.77;0.77;;;;;;;1.01;86.83;95564.59;29373;233;63004;-65
2021/12/04 02:12:05;;;;;;;0.80;0.80;;;;;;;0.99;87.53;95561.41;29373;269;63009;-64
2021/12/04 02:12:37;;;;;;;3.53;3.35;;;;;;;0.98;87.36;95565.13;29373;206;63004;-56
2021/12/04 02:13:09;;;;;;;0.70;0.70;;;;;;;0.97;87.41;95566.19;29373;305;63009;-57
2021/12/04 02:13:40;;;;;;;0.70;0.70;;;;;;;0.97;87.21;95568.88;29373;362;63005;-65
2021/12/04 02:14:13;;;;;;;0.70;0.70;;;;;;;1.01;87.13;95564.59;29371;205;64009;-63
2021/12/04 02:14:44;;;;;;;0.70;0.70;;;;;;;1.07;87.42;95562.72;29373;213;63005;-61
2021/12/04 02:15:17;;;;;;;0.90;0.90;;;;;;;1.07;87.33;95558.19;29373;222;63009;-66
2021/12/04 02:15:49;;;;;;;0.70;0.70;;;;;;;1.04;87.14;95558.72;29372;263;64005;-62
2021/12/04 02:16:22;;;;;;;0.73;0.73;;;;;;;1.04;87.20;95553.38;29373;317;63009;-62
2021/12/04 02:16:54;;;;;;;0.75;0.75;;;;;;;1.07;87.24;95546.69;29371;243;64004;-62
2021/12/04 02:17:25;;;;;;;0.80;0.80;;;;;;;1.09;87.12;95545.34;29373;239;63009;-63
2021/12/04 02:17:57;;;;;;;0.80;0.80;;;;;;;1.08;86.77;95551.78;29373;221;63004;-59
2021/12/04 02:18:29;;;;;;;0.80;0.80;;;;;;;1.06;86.96;95551.22;29373;223;63009;-64
2021/12/04 02:19:00;;;;;;;0.80;0.80;;;;;;;1.06;87.36;95556.56;29373;197;63009;-64
2021/12/04 02:19:31;;;;;;;0.70;0.70;;;;;;;1.05;87.04;95549.63;29373;318;63026;-57
2021/12/04 02:20:14;;;;;;;0.80;0.80;;;;;;;1.03;87.06;95551.78;29371;248;64005;-65
2021/12/04 02:20:46;;;;;;;0.80;0.80;;;;;;;1.01;86.95;95543.25;29373;220;63027;-62
2021/12/04 02:21:18;;;;;;;0.80;0.80;;;;;;;1.00;86.97;95541.63;29373;319;63005;-63
2021/12/04 02:21:50;;;;;;;0.80;0.80;;;;;;;0.97;87.26;95545.62;29373;199;63009;-63
2021/12/04 02:22:21;;;;;;;0.75;0.75;;;;;;;1.03;87.69;95540.31;29373;318;63005;-63
2021/12/04 02:22:52;;;;;;;0.75;0.75;;;;;;;1.03;87.69;95550.97;29373;227;63009;-62
2021/12/04 02:23:23;;;;;;;0.70;0.70;;;;;;;1.02;87.78;95547.50;29373;230;63005;-63
2021/12/04 02:23:55;;;;;;;0.70;0.70;;;;;;;0.98;87.96;95546.44;29373;202;63009;-64
2021/12/04 02:24:26;;;;;;;0.70;0.70;;;;;;;0.96;88.06;95545.91;29373;228;63004;-64
2021/12/04 02:24:57;;;;;;;0.70;0.70;;;;;;;0.94;88.03;95543.50;29371;209;64009;-57
2021/12/04 02:25:29;;;;;;;0.80;0.80;;;;;;;0.92;88.11;95544.81;29371;262;64004;-59
2021/12/04 02:26:02;;;;;;;0.70;0.70;;;;;;;0.93;88.27;95541.06;29373;240;63009;-61
2021/12/04 02:26:33;;;;;;;0.70;0.70;;;;;;;0.90;88.61;95544.28;29373;196;63004;-65
2021/12/04 02:27:05;;;;;;;0.70;0.70;;;;;;;0.88;88.67;95554.41;29372;204;64008;-63
2021/12/04 02:27:39;;;;;;;0.70;0.70;;;;;;;0.88;88.28;95539.19;29373;232;63005;-63
2021/12/04 02:28:11;;;;;;;0.80;0.80;;;;;;;0.89;88.08;95545.34;29373;359;63018;-64
2021/12/04 02:28:44;;;;;;;0.80;0.80;;;;;;;0.87;87.96;95548.28;29372;281;64005;-58
2021/12/04 02:29:16;;;;;;;0.70;0.70;;;;;;;0.86;88.58;95548.53;29373;360;63009;-64
2021/12/04 02:29:48;;;;;;;0.70;0.70;;;;;;;0.85;88.58;95549.59;29373;227;63005;-64
2021/12/04 02:30:25;;;;;;;0.70;0.70;;;;;;;0.83;88.73;95543.72;29373;308;63009;-63
2021/12/04 02:30:56;;;;;;;0.70;0.70;;;;;;;0.86;88.26;95537.84;29373;295;63005;-62
2021/12/04 02:31:28;;;;;;;0.73;0.73;;;;;;;0.87;88.17;95542.13;29373;242;63009;-64
2021/12/04 02:32:00;;;;;;;0.77;0.77;;;;;;;0.90;87.89;95536.25;29373;301;63004;-62
2021/12/04 02:32:32;;;;;;;0.70;0.70;;;;;;;0.92;87.68;95528.78;29371;202;64009;-61
2021/12/04 02:33:11;;;;;;;0.80;0.80;;;;;;;0.90;87.69;95536.25;29373;334;63004;-57
2021/12/04 02:33:43;;;;;;;0.70;0.70;;;;;;;0.93;87.62;95535.75;29373;221;63026;-58
2021/12/04 02:34:26;;;;;;;0.80;0.80;;;;;;;0.91;87.44;95535.19;29371;258;64004;-65
2021/12/04 02:34:57;;;;;;;0.75;0.75;;;;;;;0.89;87.63;95530.12;29373;242;63009;-57
2021/12/04 02:35:29;;;;;;;0.73;0.73;;;;;;;0.85;87.69;95533.59;29373;216;63015;-57
2021/12/04 02:36:02;;;;;;;0.80;0.80;;;;;;;0.83;87.72;95525.03;29371;293;64009;-59
2021/12/04 02:36:33;;;;;;;0.80;0.80;;;;;;;0.80;87.75;95525.56;29373;211;63005;-63
2021/12/04 02:37:08;;;;;;;0.80;0.80;;;;;;;0.80;87.92;95530.91;29373;225;63009;-63
2021/12/04 02:37:40;;;;;;;0.75;0.75;;;;;;;0.76;88.05;95529.81;29373;221;63015;-57
2021/12/04 02:38:11;;;;;;;0.70;0.70;;;;;;;0.73;88.00;95531.16;29373;222;63015;-64
2021/12/04 02:38:49;;;;;;;0.70;0.70;;;;;;;0.71;88.20;95517.25;29373;222;63005;-57
2021/12/04 02:39:35;;;;;;;0.80;0.80;;;;;;;0.69;88.39;95523.94;29373;210;63014;-65
2021/12/04 02:40:10;;;;;;;0.80;0.80;;;;;;;0.68;88.47;95533.84;29373;209;63004;-63
2021/12/04 02:40:43;;;;;;;0.70;0.70;;;;;;;0.71;88.50;95529.81;29373;212;63012;-60
2021/12/04 02:41:15;;;;;;;0.80;0.80;;;;;;;0.69;88.42;95534.63;29371;216;64004;-58
2021/12/04 02:41:46;;;;;;;0.70;0.70;;;;;;;0.65;88.73;95529.00;29373;277;63008;-62
2021/12/04 02:42:23;;;;;;;0.80;0.80;;;;;;;0.64;88.84;95527.41;29373;331;63011;-63
2021/12/04 02:42:54;;;;;;;0.80;0.80;;;;;;;0.62;88.72;95530.34;29373;204;63009;-63
2021/12/04 02:43:25;;;;;;;0.80;0.80;;;;;;;0.60;88.72;95524.47;29373;221;63005;-63
2021/12/04 02:43:57;;;;;;;0.80;0.80;;;;;;;0.63;88.61;95525.81;29373;202;63009;-64
2021/12/04 02:44:37;;;;;;;0.80;0.80;;;;;;;0.59;88.51;95525.53;29373;222;63005;-58
2021/12/04 02:45:11;;;;;;;0.73;0.73;;;;;;;0.57;89.00;95521.50;29395;257;63009;-64
2021/12/04 02:45:43;;;;;;;0.80;0.80;;;;;;;0.61;88.75;95525.25;29395;323;63005;-63
2021/12/04 02:46:17;;;;;;;0.70;0.70;;;;;;;0.61;88.68;95523.41;29371;205;64009;-58
2021/12/04 02:46:48;;;;;;;0.80;0.80;;;;;;;0.59;88.52;95519.37;29373;211;63004;-57
2021/12/04 02:47:20;;;;;;;0.80;0.80;;;;;;;0.58;88.59;95520.44;29373;290;63009;-64
2021/12/04 02:47:51;;;;;;;0.80;0.80;;;;;;;0.59;88.46;95522.84;29371;286;64004;-56
2021/12/04 02:48:22;;;;;;;0.80;0.80;;;;;;;0.58;88.68;95518.59;29373;230;63009;-63
2021/12/04 02:48:53;;;;;;;0.80;0.80;;;;;;;0.60;88.56;95516.44;29373;276;63004;-64
2021/12/04 02:49:25;;;;;;;0.80;0.80;;;;;;;0.64;88.46;95522.06;29371;236;64008;-60
2021/12/04 02:49:58;;;;;;;0.80;0.80;;;;;;;0.62;88.35;95519.66;29373;204;63004;-63